Dayton, Maine
Current Conditions -  °F | °C
As of 3:55 PM on Thursday 20 Nov 2014 (Local Time) from KSFM Reporting Station
Overcast Overcast  
Wind Chill: 32°   Ceiling: 6000
Heat Index: 39°   Visibility: 10mi
Dew Point: 16°   Wind: 13mph
Humidity: 39%   Direction: 250°WSW
Pressure: 29.75"   Gusts: NA
Location:  43.4906°N, 70.5283°W
Report Text: KSFM 202055Z AUTO 25011KT 10SM OVC060 04/M09 A2975 RMK AO1 54000
Loading
Personal Weather Stations






























Interactive Weather Map New forecast layout! Learn more

10-Day Weather Forecast

Advertisements
Track Severe Weather on mobile